sensor_id;sensor_type;location;lat;lon;timestamp;pressure;altitude;pressure_sealevel;temperature;humidity
47054;BME280;32811;52.382;5.270;2023-02-14T00:00:52;103558.03;;;0.93;100.00
47054;BME280;32811;52.382;5.270;2023-02-14T00:03:19;103550.16;;;0.90;100.00
47054;BME280;32811;52.382;5.270;2023-02-14T00:05:45;103587.38;;;1.08;100.00
47054;BME280;32811;52.382;5.270;2023-02-14T00:08:12;103584.41;;;1.03;100.00
47054;BME280;32811;52.382;5.270;2023-02-14T00:10:39;103554.22;;;0.88;100.00
47054;BME280;32811;52.382;5.270;2023-02-14T00:13:05;103597.69;;;1.10;100.00
47054;BME280;32811;52.382;5.270;2023-02-14T00:15:32;103584.41;;;1.03;100.00
47054;BME280;32811;52.382;5.270;2023-02-14T00:17:58;103568.84;;;0.90;100.00
47054;BME280;32811;52.382;5.270;2023-02-14T00:20:26;103592.78;;;1.02;100.00
47054;BME280;32811;52.382;5.270;2023-02-14T00:22:53;103589.22;;;1.00;100.00
47054;BME280;32811;52.382;5.270;2023-02-14T00:25:20;103574.41;;;0.86;100.00
47054;BME280;32811;52.382;5.270;2023-02-14T00:27:47;103581.34;;;0.97;100.00
47054;BME280;32811;52.382;5.270;2023-02-14T00:30:13;103579.00;;;0.90;100.00
47054;BME280;32811;52.382;5.270;2023-02-14T00:32:41;103581.56;;;0.90;100.00
47054;BME280;32811;52.382;5.270;2023-02-14T00:35:08;103582.44;;;0.91;100.00
47054;BME280;32811;52.382;5.270;2023-02-14T00:37:35;103572.97;;;0.79;100.00
47054;BME280;32811;52.382;5.270;2023-02-14T00:40:03;103575.78;;;0.82;100.00
47054;BME280;32811;52.382;5.270;2023-02-14T00:42:30;103568.53;;;0.77;100.00
47054;BME280;32811;52.382;5.270;2023-02-14T00:44:57;103552.06;;;0.63;100.00
47054;BME280;32811;52.382;5.270;2023-02-14T00:47:23;103576.28;;;0.78;100.00
47054;BME280;32811;52.382;5.270;2023-02-14T00:49:50;103576.41;;;0.80;100.00
47054;BME280;32811;52.382;5.270;2023-02-14T00:52:17;103570.91;;;0.75;100.00
47054;BME280;32811;52.382;5.270;2023-02-14T00:54:43;103566.59;;;0.74;100.00
47054;BME280;32811;52.382;5.270;2023-02-14T00:57:10;103555.25;;;0.71;100.00
47054;BME280;32811;52.382;5.270;2023-02-14T00:59:37;103558.28;;;0.67;100.00
47054;BME280;32811;52.382;5.270;2023-02-14T01:02:03;103561.84;;;0.69;100.00
47054;BME280;32811;52.382;5.270;2023-02-14T01:04:30;103544.03;;;0.58;100.00
47054;BME280;32811;52.382;5.270;2023-02-14T01:06:57;103534.06;;;0.51;100.00
47054;BME280;32811;52.382;5.270;2023-02-14T01:09:23;103536.13;;;0.55;100.00
47054;BME280;32811;52.382;5.270;2023-02-14T01:11:50;103541.50;;;0.58;100.00
47054;BME280;32811;52.382;5.270;2023-02-14T01:14:17;103539.69;;;0.57;100.00
47054;BME280;32811;52.382;5.270;2023-02-14T01:16:43;103531.72;;;0.44;100.00
47054;BME280;32811;52.382;5.270;2023-02-14T01:19:10;103528.16;;;0.42;100.00
47054;BME280;32811;52.382;5.270;2023-02-14T01:21:37;103539.44;;;0.54;100.00
47054;BME280;32811;52.382;5.270;2023-02-14T01:24:05;103551.34;;;0.55;100.00
47054;BME280;32811;52.382;5.270;2023-02-14T01:26:33;103552.88;;;0.53;100.00
47054;BME280;32811;52.382;5.270;2023-02-14T01:29:01;103528.63;;;0.38;100.00
47054;BME280;32811;52.382;5.270;2023-02-14T01:31:31;103555.78;;;0.48;100.00
47054;BME280;32811;52.382;5.270;2023-02-14T01:33:59;103532.28;;;0.31;100.00
47054;BME280;32811;52.382;5.270;2023-02-14T01:36:28;103556.66;;;0.48;100.00
47054;BME280;32811;52.382;5.270;2023-02-14T01:38:58;103559.06;;;0.47;100.00
47054;BME280;32811;52.382;5.270;2023-02-14T01:41:27;103555.38;;;0.43;100.00
47054;BME280;32811;52.382;5.270;2023-02-14T01:44:02;103561.34;;;0.44;100.00
47054;BME280;32811;52.382;5.270;2023-02-14T01:46:30;103559.56;;;0.43;100.00
47054;BME280;32811;52.382;5.270;2023-02-14T01:49:10;103562.09;;;0.43;100.00
47054;BME280;32811;52.382;5.270;2023-02-14T01:51:43;103556.00;;;0.40;100.00
47054;BME280;32811;52.382;5.270;2023-02-14T01:54:10;103535.44;;;0.29;100.00
47054;BME280;32811;52.382;5.270;2023-02-14T01:56:40;103560.78;;;0.37;100.00
47054;BME280;32811;52.382;5.270;2023-02-14T01:59:12;103554.81;;;0.37;100.00
47054;BME280;32811;52.382;5.270;2023-02-14T02:01:41;103554.56;;;0.34;100.00
47054;BME280;32811;52.382;5.270;2023-02-14T02:04:12;103557.09;;;0.34;100.00
47054;BME280;32811;52.382;5.270;2023-02-14T02:06:45;103531.19;;;0.19;100.00
47054;BME280;32811;52.382;5.270;2023-02-14T02:09:17;103532.63;;;0.26;100.00
47054;BME280;32811;52.382;5.270;2023-02-14T02:11:45;103540.03;;;0.33;100.00
47054;BME280;32811;52.382;5.270;2023-02-14T02:14:20;103547.66;;;0.33;100.00
47054;BME280;32811;52.382;5.270;2023-02-14T02:17:15;103545.91;;;0.32;100.00
47054;BME280;32811;52.382;5.270;2023-02-14T02:27:55;103539.22;;;0.24;100.00
47054;BME280;32811;52.382;5.270;2023-02-14T02:30:38;103545.81;;;0.22;100.00
47054;BME280;32811;52.382;5.270;2023-02-14T02:38:39;103545.75;;;0.11;100.00
47054;BME280;32811;52.382;5.270;2023-02-14T02:46:48;103544.16;;;0.03;100.00
47054;BME280;32811;52.382;5.270;2023-02-14T02:52:35;103543.28;;;0.03;100.00
47054;BME280;32811;52.382;5.270;2023-02-14T02:55:28;103528.81;;;-0.07;100.00
47054;BME280;32811;52.382;5.270;2023-02-14T02:58:18;103532.81;;;-0.01;100.00
47054;BME280;32811;52.382;5.270;2023-02-14T03:00:47;103529.84;;;-0.05;100.00
47054;BME280;32811;52.382;5.270;2023-02-14T03:03:17;103534.19;;;-0.04;100.00
47054;BME280;32811;52.382;5.270;2023-02-14T03:06:03;103537.63;;;-0.04;100.00
47054;BME280;32811;52.382;5.270;2023-02-14T03:08:30;103534.81;;;-0.07;100.00
47054;BME280;32811;52.382;5.270;2023-02-14T03:10:57;103524.22;;;-0.11;100.00
47054;BME280;32811;52.382;5.270;2023-02-14T03:13:48;103530.94;;;-0.12;100.00
47054;BME280;32811;52.382;5.270;2023-02-14T03:19:11;103527.84;;;-0.18;100.00
47054;BME280;32811;52.382;5.270;2023-02-14T03:22:20;103537.56;;;-0.23;100.00
47054;BME280;32811;52.382;5.270;2023-02-14T03:25:04;103525.97;;;-0.29;100.00
47054;BME280;32811;52.382;5.270;2023-02-14T03:33:29;103522.06;;;-0.26;100.00
47054;BME280;32811;52.382;5.270;2023-02-14T03:36:04;103524.63;;;-0.26;100.00
47054;BME280;32811;52.382;5.270;2023-02-14T03:38:38;103517.78;;;-0.27;100.00
47054;BME280;32811;52.382;5.270;2023-02-14T03:41:12;103515.69;;;-0.31;100.00
47054;BME280;32811;52.382;5.270;2023-02-14T03:43:47;103509.16;;;-0.37;100.00
47054;BME280;32811;52.382;5.270;2023-02-14T03:46:20;103501.88;;;-0.43;100.00
47054;BME280;32811;52.382;5.270;2023-02-14T03:48:49;103503.66;;;-0.42;100.00
47054;BME280;32811;52.382;5.270;2023-02-14T03:51:18;103487.22;;;-0.65;100.00
47054;BME280;32811;52.382;5.270;2023-02-14T03:53:50;103510.28;;;-0.53;100.00
47054;BME280;32811;52.382;5.270;2023-02-14T03:56:28;103479.94;;;-0.70;100.00
47054;BME280;32811;52.382;5.270;2023-02-14T03:59:00;103512.53;;;-0.56;100.00
47054;BME280;32811;52.382;5.270;2023-02-14T04:04:17;103520.75;;;-0.58;100.00
47054;BME280;32811;52.382;5.270;2023-02-14T04:06:44;103516.75;;;-0.65;100.00
47054;BME280;32811;52.382;5.270;2023-02-14T04:09:11;103505.13;;;-0.72;100.00
47054;BME280;32811;52.382;5.270;2023-02-14T04:11:38;103518.25;;;-0.67;100.00
47054;BME280;32811;52.382;5.270;2023-02-14T04:14:05;103519.00;;;-0.68;100.00
47054;BME280;32811;52.382;5.270;2023-02-14T04:16:34;103496.81;;;-0.79;100.00
47054;BME280;32811;52.382;5.270;2023-02-14T04:19:20;103512.75;;;-0.72;100.00
47054;BME280;32811;52.382;5.270;2023-02-14T04:21:50;103508.00;;;-0.77;100.00
47054;BME280;32811;52.382;5.270;2023-02-14T04:24:18;103509.66;;;-0.78;100.00
47054;BME280;32811;52.382;5.270;2023-02-14T04:26:45;103503.56;;;-0.80;100.00
47054;BME280;32811;52.382;5.270;2023-02-14T04:29:44;103493.72;;;-0.86;100.00
47054;BME280;32811;52.382;5.270;2023-02-14T04:32:15;103499.53;;;-0.87;100.00
47054;BME280;32811;52.382;5.270;2023-02-14T04:34:42;103497.00;;;-0.87;100.00
47054;BME280;32811;52.382;5.270;2023-02-14T04:37:09;103492.41;;;-0.91;100.00
47054;BME280;32811;52.382;5.270;2023-02-14T04:39:35;103491.50;;;-0.91;100.00
47054;BME280;32811;52.382;5.270;2023-02-14T04:42:03;103497.63;;;-0.89;100.00
47054;BME280;32811;52.382;5.270;2023-02-14T04:44:30;103495.66;;;-0.92;100.00
47054;BME280;32811;52.382;5.270;2023-02-14T04:47:00;103501.94;;;-0.88;100.00
47054;BME280;32811;52.382;5.270;2023-02-14T04:49:26;103498.34;;;-0.90;100.00
47054;BME280;32811;52.382;5.270;2023-02-14T04:51:53;103504.19;;;-0.91;100.00
47054;BME280;32811;52.382;5.270;2023-02-14T04:54:20;103502.38;;;-0.92;100.00
47054;BME280;32811;52.382;5.270;2023-02-14T04:56:46;103499.72;;;-0.94;100.00
47054;BME280;32811;52.382;5.270;2023-02-14T04:59:13;103500.19;;;-0.98;100.00
47054;BME280;32811;52.382;5.270;2023-02-14T05:01:40;103504.34;;;-0.98;100.00
47054;BME280;32811;52.382;5.270;2023-02-14T05:04:07;103478.59;;;-1.12;100.00
47054;BME280;32811;52.382;5.270;2023-02-14T05:06:34;103496.31;;;-1.03;100.00
47054;BME280;32811;52.382;5.270;2023-02-14T05:09:02;103502.41;;;-1.01;100.00
47054;BME280;32811;52.382;5.270;2023-02-14T05:11:29;103505.88;;;-1.00;100.00
47054;BME280;32811;52.382;5.270;2023-02-14T05:13:55;103485.44;;;-1.11;100.00
47054;BME280;32811;52.382;5.270;2023-02-14T05:16:22;103490.06;;;-1.07;100.00
47054;BME280;32811;52.382;5.270;2023-02-14T05:18:49;103497.94;;;-1.03;100.00
47054;BME280;32811;52.382;5.270;2023-02-14T05:21:16;103498.72;;;-1.05;100.00
47054;BME280;32811;52.382;5.270;2023-02-14T05:23:43;103502.75;;;-1.07;100.00
47054;BME280;32811;52.382;5.270;2023-02-14T05:26:09;103497.50;;;-1.08;100.00
47054;BME280;32811;52.382;5.270;2023-02-14T05:28:36;103509.31;;;-1.09;100.00
47054;BME280;32811;52.382;5.270;2023-02-14T05:31:03;103499.00;;;-1.10;100.00
47054;BME280;32811;52.382;5.270;2023-02-14T05:33:30;103483.97;;;-1.17;100.00
47054;BME280;32811;52.382;5.270;2023-02-14T05:36:00;103512.00;;;-1.07;100.00
47054;BME280;32811;52.382;5.270;2023-02-14T05:38:28;103497.34;;;-1.10;100.00
47054;BME280;32811;52.382;5.270;2023-02-14T05:40:55;103479.78;;;-1.17;100.00
47054;BME280;32811;52.382;5.270;2023-02-14T05:43:22;103477.56;;;-1.14;100.00
47054;BME280;32811;52.382;5.270;2023-02-14T05:45:48;103487.19;;;-1.01;100.00
47054;BME280;32811;52.382;5.270;2023-02-14T05:48:15;103486.31;;;-1.01;100.00
47054;BME280;32811;52.382;5.270;2023-02-14T05:50:42;103484.97;;;-0.98;100.00
47054;BME280;32811;52.382;5.270;2023-02-14T05:53:11;103493.91;;;-0.93;100.00
47054;BME280;32811;52.382;5.270;2023-02-14T05:55:38;103479.75;;;-0.99;100.00
47054;BME280;32811;52.382;5.270;2023-02-14T05:58:05;103493.75;;;-0.94;100.00
47054;BME280;32811;52.382;5.270;2023-02-14T06:00:31;103497.31;;;-0.92;100.00
47054;BME280;32811;52.382;5.270;2023-02-14T06:02:58;103498.06;;;-0.93;100.00
47054;BME280;32811;52.382;5.270;2023-02-14T06:05:25;103485.09;;;-0.96;100.00
47054;BME280;32811;52.382;5.270;2023-02-14T06:07:52;103491.19;;;-0.94;100.00
47054;BME280;32811;52.382;5.270;2023-02-14T06:10:20;103492.41;;;-0.91;100.00
47054;BME280;32811;52.382;5.270;2023-02-14T06:12:48;103491.50;;;-0.91;100.00
47054;BME280;32811;52.382;5.270;2023-02-14T06:15:15;103490.59;;;-0.92;100.00
47054;BME280;32811;52.382;5.270;2023-02-14T06:17:42;103480.94;;;-0.96;100.00
47054;BME280;32811;52.382;5.270;2023-02-14T06:20:10;103474.53;;;-1.01;100.00
47054;BME280;32811;52.382;5.270;2023-02-14T06:22:37;103497.31;;;-0.92;100.00
47054;BME280;32811;52.382;5.270;2023-02-14T06:25:05;103498.97;;;-0.93;100.00
47054;BME280;32811;52.382;5.270;2023-02-14T06:27:32;103501.22;;;-0.96;100.00
47054;BME280;32811;52.382;5.270;2023-02-14T06:29:58;103488.13;;;-1.00;100.00
47054;BME280;32811;52.382;5.270;2023-02-14T06:32:25;103496.72;;;-0.98;100.00
47054;BME280;32811;52.382;5.270;2023-02-14T06:34:52;103489.88;;;-0.99;100.00
47054;BME280;32811;52.382;5.270;2023-02-14T06:37:18;103490.03;;;-0.98;100.00
47054;BME280;32811;52.382;5.270;2023-02-14T06:39:45;103483.78;;;-1.01;100.00
47054;BME280;32811;52.382;5.270;2023-02-14T06:42:12;103461.88;;;-1.10;100.00
47054;BME280;32811;52.382;5.270;2023-02-14T06:44:39;103451.19;;;-1.16;100.00
47054;BME280;32811;52.382;5.270;2023-02-14T06:47:05;103486.00;;;-0.96;100.00
47054;BME280;32811;52.382;5.270;2023-02-14T06:49:33;103489.59;;;-0.94;100.00
47054;BME280;32811;52.382;5.270;2023-02-14T06:52:01;103482.56;;;-0.96;100.00
47054;BME280;32811;52.382;5.270;2023-02-14T06:54:27;103484.22;;;-0.97;100.00
47054;BME280;32811;52.382;5.270;2023-02-14T06:56:54;103484.06;;;-0.98;100.00
47054;BME280;32811;52.382;5.270;2023-02-14T06:59:21;103470.94;;;-1.03;100.00
47054;BME280;32811;52.382;5.270;2023-02-14T07:01:47;103479.91;;;-0.98;100.00
47054;BME280;32811;52.382;5.270;2023-02-14T07:04:14;103474.53;;;-1.01;100.00
47054;BME280;32811;52.382;5.270;2023-02-14T07:06:41;103494.78;;;-0.92;100.00
47054;BME280;32811;52.382;5.270;2023-02-14T07:09:07;103480.78;;;-0.97;100.00
47054;BME280;32811;52.382;5.270;2023-02-14T07:11:34;103484.53;;;-0.94;100.00
47054;BME280;32811;52.382;5.270;2023-02-14T07:14:01;103440.91;;;-1.17;100.00
47054;BME280;32811;52.382;5.270;2023-02-14T07:16:27;103466.66;;;-1.04;100.00
47054;BME280;32811;52.382;5.270;2023-02-14T07:18:54;103487.59;;;-0.88;100.00
47054;BME280;32811;52.382;5.270;2023-02-14T07:21:20;103477.03;;;-0.92;100.00
47054;BME280;32811;52.382;5.270;2023-02-14T07:23:47;103488.03;;;-0.83;100.00
47054;BME280;32811;52.382;5.270;2023-02-14T07:26:15;103492.78;;;-0.77;100.00
47054;BME280;32811;52.382;5.270;2023-02-14T07:28:44;103490.41;;;-0.76;100.00
47054;BME280;32811;52.382;5.270;2023-02-14T07:31:11;103481.44;;;-0.72;100.00
47054;BME280;32811;52.382;5.270;2023-02-14T07:33:38;103480.38;;;-0.74;100.00
47054;BME280;32811;52.382;5.270;2023-02-14T07:36:06;103495.41;;;-0.67;100.00
47054;BME280;32811;52.382;5.270;2023-02-14T07:38:34;103492.72;;;-0.60;100.00
47054;BME280;32811;52.382;5.270;2023-02-14T07:41:01;103496.84;;;-0.52;100.00
47054;BME280;32811;52.382;5.270;2023-02-14T07:43:27;103498.63;;;-0.51;100.00
47054;BME280;32811;52.382;5.270;2023-02-14T07:45:54;103487.59;;;-0.51;100.00
47054;BME280;32811;52.382;5.270;2023-02-14T07:48:23;103492.91;;;-0.39;100.00
47054;BME280;32811;52.382;5.270;2023-02-14T07:50:50;103492.28;;;-0.37;100.00
47054;BME280;32811;52.382;5.270;2023-02-14T07:53:17;103484.78;;;-0.27;100.00
47054;BME280;32811;52.382;5.270;2023-02-14T07:55:48;103500.28;;;-0.05;100.00
47054;BME280;32811;52.382;5.270;2023-02-14T07:58:15;103509.97;;;-0.01;100.00
47054;BME280;32811;52.382;5.270;2023-02-14T08:00:41;103499.97;;;0.01;100.00
47054;BME280;32811;52.382;5.270;2023-02-14T08:03:08;103495.44;;;0.07;100.00
47054;BME280;32811;52.382;5.270;2023-02-14T08:05:35;103482.75;;;0.07;100.00
47054;BME280;32811;52.382;5.270;2023-02-14T08:08:01;103465.44;;;0.03;100.00
47054;BME280;32811;52.382;5.270;2023-02-14T08:10:28;103505.72;;;0.28;100.00
47054;BME280;32811;52.382;5.270;2023-02-14T08:12:54;103485.81;;;0.32;100.00
47054;BME280;32811;52.382;5.270;2023-02-14T08:15:32;103500.34;;;0.44;100.00
47054;BME280;32811;52.382;5.270;2023-02-14T08:18:19;103479.69;;;0.49;100.00
47054;BME280;32811;52.382;5.270;2023-02-14T08:20:46;103488.44;;;0.82;100.00
47054;BME280;32811;52.382;5.270;2023-02-14T08:23:18;103483.66;;;0.95;100.00
47054;BME280;32811;52.382;5.270;2023-02-14T08:25:46;103488.03;;;1.07;100.00
47054;BME280;32811;52.382;5.270;2023-02-14T08:28:13;103497.47;;;1.08;100.00
47054;BME280;32811;52.382;5.270;2023-02-14T08:30:41;103493.66;;;1.13;100.00
47054;BME280;32811;52.382;5.270;2023-02-14T08:33:08;103501.13;;;1.11;100.00
47054;BME280;32811;52.382;5.270;2023-02-14T08:35:35;103500.41;;;1.22;100.00
47054;BME280;32811;52.382;5.270;2023-02-14T08:38:02;103509.59;;;1.31;100.00
47054;BME280;32811;52.382;5.270;2023-02-14T08:40:29;103505.56;;;1.43;100.00
47054;BME280;32811;52.382;5.270;2023-02-14T08:42:56;103498.69;;;1.52;100.00
47054;BME280;32811;52.382;5.270;2023-02-14T08:45:23;103498.19;;;1.66;100.00
47054;BME280;32811;52.382;5.270;2023-02-14T08:47:49;103483.56;;;1.74;100.00
47054;BME280;32811;52.382;5.270;2023-02-14T08:50:17;103512.69;;;1.98;100.00
47054;BME280;32811;52.382;5.270;2023-02-14T08:52:44;103495.22;;;2.03;100.00
47054;BME280;32811;52.382;5.270;2023-02-14T08:55:12;103464.59;;;1.81;100.00
47054;BME280;32811;52.382;5.270;2023-02-14T08:57:39;103499.94;;;2.08;100.00
47054;BME280;32811;52.382;5.270;2023-02-14T09:00:06;103499.81;;;2.17;100.00
47054;BME280;32811;52.382;5.270;2023-02-14T09:02:34;103496.22;;;2.25;100.00
47054;BME280;32811;52.382;5.270;2023-02-14T09:05:00;103496.84;;;2.33;100.00
47054;BME280;32811;52.382;5.270;2023-02-14T09:07:27;103505.06;;;2.61;100.00
47054;BME280;32811;52.382;5.270;2023-02-14T09:09:53;103480.16;;;2.69;100.00
47054;BME280;32811;52.382;5.270;2023-02-14T09:12:20;103495.53;;;2.81;100.00
47054;BME280;32811;52.382;5.270;2023-02-14T09:14:47;103491.44;;;2.83;100.00
47054;BME280;32811;52.382;5.270;2023-02-14T09:17:14;103492.69;;;2.88;100.00
47054;BME280;32811;52.382;5.270;2023-02-14T09:19:41;103495.78;;;2.84;100.00
47054;BME280;32811;52.382;5.270;2023-02-14T09:22:10;103497.38;;;2.94;100.00
47054;BME280;32811;52.382;5.270;2023-02-14T09:24:38;103485.22;;;3.01;100.00
47054;BME280;32811;52.382;5.270;2023-02-14T09:27:05;103488.56;;;3.22;100.00
47054;BME280;32811;52.382;5.270;2023-02-14T09:29:32;103460.22;;;3.19;100.00
47054;BME280;32811;52.382;5.270;2023-02-14T09:32:00;103496.38;;;3.58;100.00
47054;BME280;32811;52.382;5.270;2023-02-14T09:34:28;103497.91;;;3.56;100.00
47054;BME280;32811;52.382;5.270;2023-02-14T09:37:13;103474.25;;;3.58;100.00
47054;BME280;32811;52.382;5.270;2023-02-14T09:39:40;103464.81;;;3.57;100.00
47054;BME280;32811;52.382;5.270;2023-02-14T09:48:13;103484.03;;;4.09;100.00
47054;BME280;32811;52.382;5.270;2023-02-14T09:50:28;103480.00;;;4.01;100.00
47054;BME280;32811;52.382;5.270;2023-02-14T09:53:01;103475.78;;;4.02;100.00
47054;BME280;32811;52.382;5.270;2023-02-14T09:55:37;103471.38;;;4.23;100.00
47054;BME280;32811;52.382;5.270;2023-02-14T09:58:19;103480.69;;;4.34;100.00
47054;BME280;32811;52.382;5.270;2023-02-14T10:00:55;103465.13;;;4.43;100.00
47054;BME280;32811;52.382;5.270;2023-02-14T10:06:09;103479.47;;;4.52;100.00
47054;BME280;32811;52.382;5.270;2023-02-14T10:11:48;103478.44;;;4.74;100.00
47054;BME280;32811;52.382;5.270;2023-02-14T10:14:28;103482.97;;;4.90;100.00
47054;BME280;32811;52.382;5.270;2023-02-14T10:17:08;103468.84;;;4.83;100.00
47054;BME280;32811;52.382;5.270;2023-02-14T10:20:14;103475.28;;;4.90;100.00
47054;BME280;32811;52.382;5.270;2023-02-14T10:22:42;103452.25;;;4.90;100.00
47054;BME280;32811;52.382;5.270;2023-02-14T10:25:28;103466.31;;;5.08;100.00
47054;BME280;32811;52.382;5.270;2023-02-14T10:27:57;103474.50;;;5.28;100.00
47054;BME280;32811;52.382;5.270;2023-02-14T10:30:27;103463.81;;;5.22;100.00
47054;BME280;32811;52.382;5.270;2023-02-14T10:33:18;103446.28;;;5.14;100.00
47054;BME280;32811;52.382;5.270;2023-02-14T10:35:50;103461.06;;;5.44;100.00
47054;BME280;32811;52.382;5.270;2023-02-14T10:38:31;103455.81;;;5.42;100.00
47054;BME280;32811;52.382;5.270;2023-02-14T10:44:25;103460.59;;;5.62;100.00
47054;BME280;32811;52.382;5.270;2023-02-14T10:47:40;103447.06;;;5.77;100.00
47054;BME280;32811;52.382;5.270;2023-02-14T10:52:46;103437.69;;;5.91;100.00
47054;BME280;32811;52.382;5.270;2023-02-14T10:55:30;103434.78;;;6.11;100.00
47054;BME280;32811;52.382;5.270;2023-02-14T10:58:01;103436.75;;;6.29;100.00
47054;BME280;32811;52.382;5.270;2023-02-14T11:00:36;103432.78;;;6.34;100.00
47054;BME280;32811;52.382;5.270;2023-02-14T11:03:06;103432.72;;;6.46;100.00
47054;BME280;32811;52.382;5.270;2023-02-14T11:05:37;103428.84;;;6.52;100.00
47054;BME280;32811;52.382;5.270;2023-02-14T11:08:25;103431.06;;;6.74;100.00
47054;BME280;32811;52.382;5.270;2023-02-14T11:13:47;103435.16;;;6.99;100.00
47054;BME280;32811;52.382;5.270;2023-02-14T11:16:35;103436.47;;;7.07;100.00
47054;BME280;32811;52.382;5.270;2023-02-14T11:21:43;103426.78;;;7.31;100.00
47054;BME280;32811;52.382;5.270;2023-02-14T11:24:33;103423.34;;;7.31;100.00
47054;BME280;32811;52.382;5.270;2023-02-14T11:29:34;103407.84;;;7.44;100.00
47054;BME280;32811;52.382;5.270;2023-02-14T11:32:11;103407.66;;;7.41;100.00
47054;BME280;32811;52.382;5.270;2023-02-14T11:35:02;103415.72;;;7.47;100.00
47054;BME280;32811;52.382;5.270;2023-02-14T11:37:31;103406.00;;;7.56;100.00
47054;BME280;32811;52.382;5.270;2023-02-14T11:40:00;103401.47;;;7.67;100.00
47054;BME280;32811;52.382;5.270;2023-02-14T11:42:39;103399.97;;;7.71;100.00
47054;BME280;32811;52.382;5.270;2023-02-14T11:45:32;103385.94;;;7.80;100.00
47054;BME280;32811;52.382;5.270;2023-02-14T11:50:31;103371.44;;;7.66;100.00
47054;BME280;32811;52.382;5.270;2023-02-14T11:52:58;103346.00;;;7.56;100.00
47054;BME280;32811;52.382;5.270;2023-02-14T11:55:27;103375.56;;;7.79;100.00
47054;BME280;32811;52.382;5.270;2023-02-14T11:57:55;103367.84;;;7.79;100.00
47054;BME280;32811;52.382;5.270;2023-02-14T12:00:23;103324.09;;;7.62;100.00
47054;BME280;32811;52.382;5.270;2023-02-14T12:02:52;103363.41;;;7.91;100.00
47054;BME280;32811;52.382;5.270;2023-02-14T12:05:30;103327.66;;;7.96;100.00
47054;BME280;32811;52.382;5.270;2023-02-14T12:07:59;103311.00;;;7.89;100.00
47054;BME280;32811;52.382;5.270;2023-02-14T12:10:31;103352.06;;;8.19;100.00
47054;BME280;32811;52.382;5.270;2023-02-14T12:15:50;103350.09;;;8.29;100.00
47054;BME280;32811;52.382;5.270;2023-02-14T12:21:22;103332.69;;;8.40;100.00
47054;BME280;32811;52.382;5.270;2023-02-14T12:24:19;103304.53;;;8.43;100.00
47054;BME280;32811;52.382;5.270;2023-02-14T12:27:30;103323.84;;;8.68;100.00
47054;BME280;32811;52.382;5.270;2023-02-14T12:30:05;103262.41;;;8.58;100.00
47054;BME280;32811;52.382;5.270;2023-02-14T12:32:47;103262.69;;;8.64;100.00
47054;BME280;32811;52.382;5.270;2023-02-14T12:40:55;103310.94;;;9.01;100.00
47054;BME280;32811;52.382;5.270;2023-02-14T12:43:48;103314.25;;;8.98;100.00
47054;BME280;32811;52.382;5.270;2023-02-14T12:46:32;103310.34;;;9.06;100.00
47054;BME280;32811;52.382;5.270;2023-02-14T13:11:21;103269.84;;;9.38;100.00
47054;BME280;32811;52.382;5.270;2023-02-14T13:16:50;103225.84;;;9.17;100.00
47054;BME280;32811;52.382;5.270;2023-02-14T13:22:12;103258.91;;;9.62;100.00
47054;BME280;32811;52.382;5.270;2023-02-14T13:24:43;103253.59;;;9.76;100.00
47054;BME280;32811;52.382;5.270;2023-02-14T13:27:17;103260.69;;;9.81;100.00
47054;BME280;32811;52.382;5.270;2023-02-14T13:29:53;103240.72;;;9.76;100.00
47054;BME280;32811;52.382;5.270;2023-02-14T13:32:25;103215.38;;;9.68;100.00
47054;BME280;32811;52.382;5.270;2023-02-14T13:34:55;103238.03;;;9.75;100.00
47054;BME280;32811;52.382;5.270;2023-02-14T13:37:24;103244.31;;;9.62;100.00
47054;BME280;32811;52.382;5.270;2023-02-14T13:40:22;103238.50;;;9.66;100.00
47054;BME280;32811;52.382;5.270;2023-02-14T13:42:53;103241.38;;;9.72;100.00
47054;BME280;32811;52.382;5.270;2023-02-14T13:48:18;103238.53;;;9.86;100.00
47054;BME280;32811;52.382;5.270;2023-02-14T13:50:56;103226.03;;;9.75;100.00
47054;BME280;32811;52.382;5.270;2023-02-14T13:55:58;103217.19;;;9.70;100.00
47054;BME280;32811;52.382;5.270;2023-02-14T13:58:26;103215.34;;;9.86;100.00
47054;BME280;32811;52.382;5.270;2023-02-14T14:00:54;103213.16;;;9.95;100.00
47054;BME280;32811;52.382;5.270;2023-02-14T14:11:00;103202.84;;;9.57;100.00
47054;BME280;32811;52.382;5.270;2023-02-14T14:21:40;103189.16;;;9.59;100.00
47054;BME280;32811;52.382;5.270;2023-02-14T14:24:25;103201.81;;;9.72;100.00
47054;BME280;32811;52.382;5.270;2023-02-14T14:29:43;103208.41;;;9.85;100.00
47054;BME280;32811;52.382;5.270;2023-02-14T14:32:17;103203.50;;;9.71;100.00
47054;BME280;32811;52.382;5.270;2023-02-14T14:34:52;103192.50;;;9.56;100.00
47054;BME280;32811;52.382;5.270;2023-02-14T14:37:27;103196.38;;;9.66;100.00
47054;BME280;32811;52.382;5.270;2023-02-14T14:39:59;103207.06;;;9.73;100.00
47054;BME280;32811;52.382;5.270;2023-02-14T14:42:29;103200.78;;;9.68;100.00
47054;BME280;32811;52.382;5.270;2023-02-14T14:45:00;103202.13;;;9.60;100.00
47054;BME280;32811;52.382;5.270;2023-02-14T14:47:33;103191.81;;;9.60;100.00
47054;BME280;32811;52.382;5.270;2023-02-14T14:50:06;103189.28;;;9.62;100.00
47054;BME280;32811;52.382;5.270;2023-02-14T14:52:41;103200.50;;;9.44;100.00
47054;BME280;32811;52.382;5.270;2023-02-14T14:55:20;103187.41;;;9.40;100.00
47054;BME280;32811;52.382;5.270;2023-02-14T14:57:56;103198.00;;;9.46;100.00
47054;BME280;32811;52.382;5.270;2023-02-14T15:05:49;103194.41;;;9.60;100.00
47054;BME280;32811;52.382;5.270;2023-02-14T15:14:04;103196.63;;;9.34;100.00
47054;BME280;32811;52.382;5.270;2023-02-14T15:16:39;103197.69;;;9.20;100.00
47054;BME280;32811;52.382;5.270;2023-02-14T15:19:09;103163.06;;;8.97;100.00
47054;BME280;32811;52.382;5.270;2023-02-14T15:21:40;103188.81;;;9.15;100.00